Etusivu
METAR-TAF:

METAR-TAF

Lentoasemat :

Ely, Minnesota, Yhdysvallat

Leveyspiiri: 47-49N, Pituuspiiri: 091-50W, korkeus merenpinnasta: 443 m

Tämänhetkinen sää

Tämä raportti tehtiin 50 minuuttia sitten, kello 19.55 UTC
Tuuli 5 kn luoteesta
Lämpötila -8°C
Kosteus 48%
Ilmanpaine 1022 hPa
Näkyvyys: 16.1 km
Pilvistä 3500 ft:n korkeudessa

METAR: KELO 261955Z AUTO 31005KT 10SM OVC035 M08/M17 A3019 RMK AO2

Aika: 14:45 (20:45 UTC)


TAF: puuttuu

Säähavainnot ja -ennusteet yli 4000 lentoasemalta (METAR- ja TAF-raportit).

Käytössä olevat sääasemat on merkitty karttaan keltaisilla ja punaisilla pisteillä.

Aseta hiiri pisteen päälle nähdäksesi sääaseman nimen.

Klikkaa sitten nähdäksesi säähavainnot ja -ennusteet.

Kartan vaihtaminen: klikkaa mustalla rastilla varustettuja vihreitä pisteitä, niin voit zoomata sisään; viivalla varustettua vihreää pistettä, niin voit zoomata ulos tai vihreitä nuolia, niin pääset viereisille kartoille.


METAR-TAF: